sensor_id;sensor_type;location;lat;lon;timestamp;temperature;humidity
71206;SHT31;58935;54.498;18.544;2023-06-26T00:01:23;16.71;76.59
71206;SHT31;58935;54.498;18.544;2023-06-26T00:03:48;16.68;76.70
71206;SHT31;58935;54.498;18.544;2023-06-26T00:06:13;16.67;76.70
71206;SHT31;58935;54.498;18.544;2023-06-26T00:08:39;16.66;76.71
71206;SHT31;58935;54.498;18.544;2023-06-26T00:11:05;16.64;76.95
71206;SHT31;58935;54.498;18.544;2023-06-26T00:13:30;16.63;77.03
71206;SHT31;58935;54.498;18.544;2023-06-26T00:15:56;16.62;77.13
71206;SHT31;58935;54.498;18.544;2023-06-26T00:18:22;16.61;77.18
71206;SHT31;58935;54.498;18.544;2023-06-26T00:23:41;16.60;77.36
71206;SHT31;58935;54.498;18.544;2023-06-26T00:26:07;16.58;77.40
71206;SHT31;58935;54.498;18.544;2023-06-26T00:28:32;16.56;77.41
71206;SHT31;58935;54.498;18.544;2023-06-26T00:31:00;16.54;77.43
71206;SHT31;58935;54.498;18.544;2023-06-26T00:33:25;16.52;77.44
71206;SHT31;58935;54.498;18.544;2023-06-26T00:35:51;16.48;77.41
71206;SHT31;58935;54.498;18.544;2023-06-26T00:38:16;16.45;77.60
71206;SHT31;58935;54.498;18.544;2023-06-26T00:40:42;16.43;77.72
71206;SHT31;58935;54.498;18.544;2023-06-26T00:43:08;16.43;77.93
71206;SHT31;58935;54.498;18.544;2023-06-26T00:45:36;16.46;78.64
71206;SHT31;58935;54.498;18.544;2023-06-26T00:48:01;16.49;79.08
71206;SHT31;58935;54.498;18.544;2023-06-26T00:50:28;16.51;79.28
71206;SHT31;58935;54.498;18.544;2023-06-26T00:52:54;16.51;79.32
71206;SHT31;58935;54.498;18.544;2023-06-26T00:55:25;16.52;79.42
71206;SHT31;58935;54.498;18.544;2023-06-26T00:57:50;16.51;79.21
71206;SHT31;58935;54.498;18.544;2023-06-26T01:00:16;16.51;79.20
71206;SHT31;58935;54.498;18.544;2023-06-26T01:02:42;16.50;78.95
71206;SHT31;58935;54.498;18.544;2023-06-26T01:05:08;16.48;78.83
71206;SHT31;58935;54.498;18.544;2023-06-26T01:07:38;16.46;78.75
71206;SHT31;58935;54.498;18.544;2023-06-26T01:10:05;16.43;78.73
71206;SHT31;58935;54.498;18.544;2023-06-26T01:12:32;16.42;78.94
71206;SHT31;58935;54.498;18.544;2023-06-26T01:15:01;16.42;79.18
71206;SHT31;58935;54.498;18.544;2023-06-26T01:17:29;16.42;79.54
71206;SHT31;58935;54.498;18.544;2023-06-26T01:19:57;16.42;79.67
71206;SHT31;58935;54.498;18.544;2023-06-26T01:22:31;16.43;79.77
71206;SHT31;58935;54.498;18.544;2023-06-26T01:27:46;16.43;79.82
71206;SHT31;58935;54.498;18.544;2023-06-26T01:30:17;16.44;80.05
71206;SHT31;58935;54.498;18.544;2023-06-26T01:32:45;16.43;80.17
71206;SHT31;58935;54.498;18.544;2023-06-26T01:35:11;16.43;80.20
71206;SHT31;58935;54.498;18.544;2023-06-26T01:37:38;16.44;80.22
71206;SHT31;58935;54.498;18.544;2023-06-26T01:40:03;16.46;80.20
71206;SHT31;58935;54.498;18.544;2023-06-26T01:42:31;16.45;80.17
71206;SHT31;58935;54.498;18.544;2023-06-26T01:44:58;16.45;80.06
71206;SHT31;58935;54.498;18.544;2023-06-26T01:47:35;16.43;79.96
71206;SHT31;58935;54.498;18.544;2023-06-26T01:50:08;16.41;80.00
71206;SHT31;58935;54.498;18.544;2023-06-26T01:52:41;16.41;80.01
71206;SHT31;58935;54.498;18.544;2023-06-26T01:55:17;16.40;80.10
71206;SHT31;58935;54.498;18.544;2023-06-26T01:57:53;16.41;80.30
71206;SHT31;58935;54.498;18.544;2023-06-26T02:00:21;16.42;80.16
71206;SHT31;58935;54.498;18.544;2023-06-26T02:02:49;16.42;80.04
71206;SHT31;58935;54.498;18.544;2023-06-26T02:05:15;16.42;79.88
71206;SHT31;58935;54.498;18.544;2023-06-26T02:07:41;16.40;79.63
71206;SHT31;58935;54.498;18.544;2023-06-26T02:10:06;16.38;79.65
71206;SHT31;58935;54.498;18.544;2023-06-26T02:12:34;16.35;79.47
71206;SHT31;58935;54.498;18.544;2023-06-26T02:15:02;16.31;79.47
71206;SHT31;58935;54.498;18.544;2023-06-26T02:17:29;16.29;79.40
71206;SHT31;58935;54.498;18.544;2023-06-26T02:19:54;16.27;79.38
71206;SHT31;58935;54.498;18.544;2023-06-26T02:22:20;16.23;79.37
71206;SHT31;58935;54.498;18.544;2023-06-26T02:24:45;16.20;79.28
71206;SHT31;58935;54.498;18.544;2023-06-26T02:27:11;16.19;79.29
71206;SHT31;58935;54.498;18.544;2023-06-26T02:29:37;16.19;79.21
71206;SHT31;58935;54.498;18.544;2023-06-26T02:32:04;16.19;79.01
71206;SHT31;58935;54.498;18.544;2023-06-26T02:34:30;16.17;79.00
71206;SHT31;58935;54.498;18.544;2023-06-26T02:36:55;16.17;79.03
71206;SHT31;58935;54.498;18.544;2023-06-26T02:39:21;16.18;79.08
71206;SHT31;58935;54.498;18.544;2023-06-26T02:41:49;16.16;79.15
71206;SHT31;58935;54.498;18.544;2023-06-26T02:44:15;16.15;79.19
71206;SHT31;58935;54.498;18.544;2023-06-26T02:46:43;16.14;79.17
71206;SHT31;58935;54.498;18.544;2023-06-26T02:49:11;16.13;79.20
71206;SHT31;58935;54.498;18.544;2023-06-26T02:51:36;16.13;79.24
71206;SHT31;58935;54.498;18.544;2023-06-26T02:54:02;16.15;79.20
71206;SHT31;58935;54.498;18.544;2023-06-26T02:56:29;16.14;79.12
71206;SHT31;58935;54.498;18.544;2023-06-26T02:58:55;16.15;79.10
71206;SHT31;58935;54.498;18.544;2023-06-26T03:01:23;16.15;79.10
71206;SHT31;58935;54.498;18.544;2023-06-26T03:03:49;16.16;79.17
71206;SHT31;58935;54.498;18.544;2023-06-26T03:06:14;16.19;79.28
71206;SHT31;58935;54.498;18.544;2023-06-26T03:08:40;16.25;79.30
71206;SHT31;58935;54.498;18.544;2023-06-26T03:11:06;16.38;79.12
71206;SHT31;58935;54.498;18.544;2023-06-26T03:13:34;16.58;78.78
71206;SHT31;58935;54.498;18.544;2023-06-26T03:16:01;16.84;78.41
71206;SHT31;58935;54.498;18.544;2023-06-26T03:18:27;17.68;77.03
71206;SHT31;58935;54.498;18.544;2023-06-26T03:20:55;18.54;75.36
71206;SHT31;58935;54.498;18.544;2023-06-26T03:23:22;18.96;74.12
71206;SHT31;58935;54.498;18.544;2023-06-26T03:25:49;19.06;73.48
71206;SHT31;58935;54.498;18.544;2023-06-26T03:28:15;19.09;73.13
71206;SHT31;58935;54.498;18.544;2023-06-26T03:30:41;19.13;72.58
71206;SHT31;58935;54.498;18.544;2023-06-26T03:33:06;19.15;72.30
71206;SHT31;58935;54.498;18.544;2023-06-26T03:35:32;19.20;72.20
71206;SHT31;58935;54.498;18.544;2023-06-26T03:37:58;19.26;71.64
71206;SHT31;58935;54.498;18.544;2023-06-26T03:40:24;19.27;71.28
71206;SHT31;58935;54.498;18.544;2023-06-26T03:42:49;19.28;71.07
71206;SHT31;58935;54.498;18.544;2023-06-26T03:45:15;19.27;70.69
71206;SHT31;58935;54.498;18.544;2023-06-26T03:47:40;19.25;70.54
71206;SHT31;58935;54.498;18.544;2023-06-26T03:50:08;19.25;70.33
71206;SHT31;58935;54.498;18.544;2023-06-26T03:52:34;19.21;70.00
71206;SHT31;58935;54.498;18.544;2023-06-26T03:55:00;19.15;69.94
71206;SHT31;58935;54.498;18.544;2023-06-26T03:57:25;19.12;69.87
71206;SHT31;58935;54.498;18.544;2023-06-26T03:59:53;19.09;69.82
71206;SHT31;58935;54.498;18.544;2023-06-26T04:02:18;19.06;69.60
71206;SHT31;58935;54.498;18.544;2023-06-26T04:04:44;19.04;69.42
71206;SHT31;58935;54.498;18.544;2023-06-26T04:07:09;19.02;69.33
71206;SHT31;58935;54.498;18.544;2023-06-26T04:09:35;19.02;69.13
71206;SHT31;58935;54.498;18.544;2023-06-26T04:12:00;19.03;68.84
71206;SHT31;58935;54.498;18.544;2023-06-26T04:14:28;19.04;68.66
71206;SHT31;58935;54.498;18.544;2023-06-26T04:16:53;19.06;68.64
71206;SHT31;58935;54.498;18.544;2023-06-26T04:19:19;19.07;68.48
71206;SHT31;58935;54.498;18.544;2023-06-26T04:21:44;19.08;68.17
71206;SHT31;58935;54.498;18.544;2023-06-26T04:24:10;19.08;67.84
71206;SHT31;58935;54.498;18.544;2023-06-26T04:26:36;19.10;67.72
71206;SHT31;58935;54.498;18.544;2023-06-26T04:29:02;19.13;67.66
71206;SHT31;58935;54.498;18.544;2023-06-26T04:31:28;19.16;67.24
71206;SHT31;58935;54.498;18.544;2023-06-26T04:33:53;19.21;66.79
71206;SHT31;58935;54.498;18.544;2023-06-26T04:36:20;19.26;66.45
71206;SHT31;58935;54.498;18.544;2023-06-26T04:38:46;19.32;66.26
71206;SHT31;58935;54.498;18.544;2023-06-26T04:41:13;19.38;65.80
71206;SHT31;58935;54.498;18.544;2023-06-26T04:43:39;19.43;65.68
71206;SHT31;58935;54.498;18.544;2023-06-26T04:46:05;19.50;65.65
71206;SHT31;58935;54.498;18.544;2023-06-26T04:48:31;19.55;65.46
71206;SHT31;58935;54.498;18.544;2023-06-26T04:50:57;19.61;65.28
71206;SHT31;58935;54.498;18.544;2023-06-26T04:53:24;19.68;64.88
71206;SHT31;58935;54.498;18.544;2023-06-26T04:55:51;19.76;64.36
71206;SHT31;58935;54.498;18.544;2023-06-26T04:58:18;19.83;63.43
71206;SHT31;58935;54.498;18.544;2023-06-26T05:00:44;19.89;62.87
71206;SHT31;58935;54.498;18.544;2023-06-26T05:03:11;19.95;62.98
71206;SHT31;58935;54.498;18.544;2023-06-26T05:05:39;20.03;62.33
71206;SHT31;58935;54.498;18.544;2023-06-26T05:10:45;20.17;61.02
71206;SHT31;58935;54.498;18.544;2023-06-26T05:13:13;20.23;59.74
71206;SHT31;58935;54.498;18.544;2023-06-26T05:15:42;20.32;59.69
71206;SHT31;58935;54.498;18.544;2023-06-26T05:18:09;20.40;59.68
71206;SHT31;58935;54.498;18.544;2023-06-26T05:20:35;20.48;59.98
71206;SHT31;58935;54.498;18.544;2023-06-26T05:23:02;20.55;60.45
71206;SHT31;58935;54.498;18.544;2023-06-26T05:25:29;20.63;60.75
71206;SHT31;58935;54.498;18.544;2023-06-26T05:27:56;20.68;61.45
71206;SHT31;58935;54.498;18.544;2023-06-26T05:30:24;20.74;61.75
71206;SHT31;58935;54.498;18.544;2023-06-26T05:32:52;20.76;62.31
71206;SHT31;58935;54.498;18.544;2023-06-26T05:35:21;20.76;62.30
71206;SHT31;58935;54.498;18.544;2023-06-26T05:37:49;20.74;61.25
71206;SHT31;58935;54.498;18.544;2023-06-26T05:40:16;20.70;60.36
71206;SHT31;58935;54.498;18.544;2023-06-26T05:42:43;20.65;60.26
71206;SHT31;58935;54.498;18.544;2023-06-26T05:45:09;20.62;61.10
71206;SHT31;58935;54.498;18.544;2023-06-26T05:47:36;20.62;62.22
71206;SHT31;58935;54.498;18.544;2023-06-26T05:50:02;20.59;65.07
71206;SHT31;58935;54.498;18.544;2023-06-26T05:52:29;20.54;67.45
71206;SHT31;58935;54.498;18.544;2023-06-26T05:54:55;20.51;68.33
71206;SHT31;58935;54.498;18.544;2023-06-26T05:57:25;20.48;69.07
71206;SHT31;58935;54.498;18.544;2023-06-26T05:59:56;20.51;69.33
71206;SHT31;58935;54.498;18.544;2023-06-26T06:02:21;20.53;69.67
71206;SHT31;58935;54.498;18.544;2023-06-26T06:04:47;20.45;69.70
71206;SHT31;58935;54.498;18.544;2023-06-26T06:07:13;20.36;69.32
71206;SHT31;58935;54.498;18.544;2023-06-26T06:09:39;20.32;69.42
71206;SHT31;58935;54.498;18.544;2023-06-26T06:12:05;20.31;71.47
71206;SHT31;58935;54.498;18.544;2023-06-26T06:14:32;20.34;71.16
71206;SHT31;58935;54.498;18.544;2023-06-26T06:17:03;20.37;72.57
71206;SHT31;58935;54.498;18.544;2023-06-26T06:19:29;20.38;73.22
71206;SHT31;58935;54.498;18.544;2023-06-26T06:21:54;20.38;73.98
71206;SHT31;58935;54.498;18.544;2023-06-26T06:24:21;20.32;74.06
71206;SHT31;58935;54.498;18.544;2023-06-26T06:26:47;20.28;73.86
71206;SHT31;58935;54.498;18.544;2023-06-26T06:29:12;20.26;73.79
71206;SHT31;58935;54.498;18.544;2023-06-26T06:31:37;20.26;74.91
71206;SHT31;58935;54.498;18.544;2023-06-26T06:34:03;20.33;75.31
71206;SHT31;58935;54.498;18.544;2023-06-26T06:36:28;20.39;75.50
71206;SHT31;58935;54.498;18.544;2023-06-26T06:38:53;20.39;75.37
71206;SHT31;58935;54.498;18.544;2023-06-26T06:41:19;20.36;74.13
71206;SHT31;58935;54.498;18.544;2023-06-26T06:43:45;20.38;73.68
71206;SHT31;58935;54.498;18.544;2023-06-26T06:46:13;20.41;73.60
71206;SHT31;58935;54.498;18.544;2023-06-26T06:48:41;20.48;73.15
71206;SHT31;58935;54.498;18.544;2023-06-26T06:51:06;20.55;72.95
71206;SHT31;58935;54.498;18.544;2023-06-26T06:53:32;20.63;72.01
71206;SHT31;58935;54.498;18.544;2023-06-26T06:55:57;20.68;71.17
71206;SHT31;58935;54.498;18.544;2023-06-26T06:58:22;20.75;72.39
71206;SHT31;58935;54.498;18.544;2023-06-26T07:00:50;20.78;73.70
71206;SHT31;58935;54.498;18.544;2023-06-26T07:03:18;20.78;74.22
71206;SHT31;58935;54.498;18.544;2023-06-26T07:05:43;20.84;74.07
71206;SHT31;58935;54.498;18.544;2023-06-26T07:08:11;20.94;73.13
71206;SHT31;58935;54.498;18.544;2023-06-26T07:10:36;21.00;72.66
71206;SHT31;58935;54.498;18.544;2023-06-26T07:13:02;21.02;71.91
71206;SHT31;58935;54.498;18.544;2023-06-26T07:15:27;21.01;72.54
71206;SHT31;58935;54.498;18.544;2023-06-26T07:17:55;21.00;72.76
71206;SHT31;58935;54.498;18.544;2023-06-26T07:20:23;21.05;73.31
71206;SHT31;58935;54.498;18.544;2023-06-26T07:22:48;21.10;73.36
71206;SHT31;58935;54.498;18.544;2023-06-26T07:25:14;21.10;72.81
71206;SHT31;58935;54.498;18.544;2023-06-26T07:27:40;21.13;72.25
71206;SHT31;58935;54.498;18.544;2023-06-26T07:30:06;21.08;71.60
71206;SHT31;58935;54.498;18.544;2023-06-26T07:32:34;21.03;72.15
71206;SHT31;58935;54.498;18.544;2023-06-26T07:35:00;21.05;71.74
71206;SHT31;58935;54.498;18.544;2023-06-26T07:37:26;20.97;70.99
71206;SHT31;58935;54.498;18.544;2023-06-26T07:39:53;20.89;70.64
71206;SHT31;58935;54.498;18.544;2023-06-26T07:42:19;20.82;69.08
71206;SHT31;58935;54.498;18.544;2023-06-26T07:44:44;20.83;68.67
71206;SHT31;58935;54.498;18.544;2023-06-26T07:47:10;20.91;69.35
71206;SHT31;58935;54.498;18.544;2023-06-26T07:49:36;21.02;68.64
71206;SHT31;58935;54.498;18.544;2023-06-26T07:52:02;21.10;68.90
71206;SHT31;58935;54.498;18.544;2023-06-26T07:54:29;21.24;68.98
71206;SHT31;58935;54.498;18.544;2023-06-26T07:56:56;21.39;68.77
71206;SHT31;58935;54.498;18.544;2023-06-26T07:59:27;21.50;67.81
71206;SHT31;58935;54.498;18.544;2023-06-26T08:01:54;21.51;66.81
71206;SHT31;58935;54.498;18.544;2023-06-26T08:04:23;21.44;67.04
71206;SHT31;58935;54.498;18.544;2023-06-26T08:06:55;21.40;66.95
71206;SHT31;58935;54.498;18.544;2023-06-26T08:09:23;21.38;66.44
71206;SHT31;58935;54.498;18.544;2023-06-26T08:11:52;21.29;65.09
71206;SHT31;58935;54.498;18.544;2023-06-26T08:14:18;21.28;65.04
71206;SHT31;58935;54.498;18.544;2023-06-26T08:16:44;21.38;65.72
71206;SHT31;58935;54.498;18.544;2023-06-26T08:19:13;21.52;64.50
71206;SHT31;58935;54.498;18.544;2023-06-26T08:21:42;21.61;63.61
71206;SHT31;58935;54.498;18.544;2023-06-26T08:24:10;21.69;63.07
71206;SHT31;58935;54.498;18.544;2023-06-26T08:26:37;21.78;60.92
71206;SHT31;58935;54.498;18.544;2023-06-26T08:29:03;21.80;60.79
71206;SHT31;58935;54.498;18.544;2023-06-26T08:31:34;21.78;58.32
71206;SHT31;58935;54.498;18.544;2023-06-26T08:34:01;21.78;60.06
71206;SHT31;58935;54.498;18.544;2023-06-26T08:36:28;21.82;60.01
71206;SHT31;58935;54.498;18.544;2023-06-26T08:38:53;21.79;60.80
71206;SHT31;58935;54.498;18.544;2023-06-26T08:41:19;21.78;60.86
71206;SHT31;58935;54.498;18.544;2023-06-26T08:43:44;21.77;60.17
71206;SHT31;58935;54.498;18.544;2023-06-26T08:46:09;21.80;62.04
71206;SHT31;58935;54.498;18.544;2023-06-26T08:48:35;21.86;62.54
71206;SHT31;58935;54.498;18.544;2023-06-26T08:56:12;22.09;61.28
71206;SHT31;58935;54.498;18.544;2023-06-26T08:58:42;22.10;57.91
71206;SHT31;58935;54.498;18.544;2023-06-26T09:01:09;22.11;57.07
71206;SHT31;58935;54.498;18.544;2023-06-26T09:03:36;22.11;55.49
71206;SHT31;58935;54.498;18.544;2023-06-26T09:06:02;22.09;58.19
71206;SHT31;58935;54.498;18.544;2023-06-26T09:08:29;22.10;57.12
71206;SHT31;58935;54.498;18.544;2023-06-26T09:10:57;22.08;60.09
71206;SHT31;58935;54.498;18.544;2023-06-26T09:13:24;22.11;60.81
71206;SHT31;58935;54.498;18.544;2023-06-26T09:15:50;22.11;59.50
71206;SHT31;58935;54.498;18.544;2023-06-26T09:18:21;22.11;60.47
71206;SHT31;58935;54.498;18.544;2023-06-26T09:20:46;22.15;62.13
71206;SHT31;58935;54.498;18.544;2023-06-26T09:23:13;22.17;61.80
71206;SHT31;58935;54.498;18.544;2023-06-26T09:25:42;22.18;61.32
71206;SHT31;58935;54.498;18.544;2023-06-26T09:28:09;22.23;62.35
71206;SHT31;58935;54.498;18.544;2023-06-26T09:30:37;22.24;58.94
71206;SHT31;58935;54.498;18.544;2023-06-26T09:35:36;22.20;56.87
71206;SHT31;58935;54.498;18.544;2023-06-26T09:38:02;22.22;56.77
71206;SHT31;58935;54.498;18.544;2023-06-26T09:40:28;22.29;56.02
71206;SHT31;58935;54.498;18.544;2023-06-26T09:43:02;22.32;54.28
71206;SHT31;58935;54.498;18.544;2023-06-26T09:45:30;22.34;55.52
71206;SHT31;58935;54.498;18.544;2023-06-26T09:47:59;22.34;51.68
71206;SHT31;58935;54.498;18.544;2023-06-26T09:50:27;22.35;52.37
71206;SHT31;58935;54.498;18.544;2023-06-26T09:52:54;22.42;49.99
71206;SHT31;58935;54.498;18.544;2023-06-26T09:55:20;22.43;50.52
71206;SHT31;58935;54.498;18.544;2023-06-26T09:57:47;22.41;53.14
71206;SHT31;58935;54.498;18.544;2023-06-26T10:00:15;22.47;53.28
71206;SHT31;58935;54.498;18.544;2023-06-26T10:02:41;22.52;58.24
71206;SHT31;58935;54.498;18.544;2023-06-26T10:05:06;22.54;60.86
71206;SHT31;58935;54.498;18.544;2023-06-26T10:07:32;22.56;61.49
71206;SHT31;58935;54.498;18.544;2023-06-26T10:10:00;22.61;61.19
71206;SHT31;58935;54.498;18.544;2023-06-26T10:12:29;22.68;60.27
71206;SHT31;58935;54.498;18.544;2023-06-26T10:14:56;22.73;58.96
71206;SHT31;58935;54.498;18.544;2023-06-26T10:17:24;22.72;56.28
71206;SHT31;58935;54.498;18.544;2023-06-26T10:19:58;22.76;57.72
71206;SHT31;58935;54.498;18.544;2023-06-26T10:22:31;22.83;58.73
71206;SHT31;58935;54.498;18.544;2023-06-26T10:25:04;22.89;61.01
71206;SHT31;58935;54.498;18.544;2023-06-26T10:27:35;22.94;59.01
71206;SHT31;58935;54.498;18.544;2023-06-26T10:30:06;22.94;60.95
71206;SHT31;58935;54.498;18.544;2023-06-26T10:32:39;22.98;63.00
71206;SHT31;58935;54.498;18.544;2023-06-26T10:35:06;22.99;59.43
71206;SHT31;58935;54.498;18.544;2023-06-26T10:40:09;22.97;60.72
71206;SHT31;58935;54.498;18.544;2023-06-26T10:42:36;22.98;62.42
71206;SHT31;58935;54.498;18.544;2023-06-26T10:47:39;22.96;62.83
71206;SHT31;58935;54.498;18.544;2023-06-26T10:52:46;23.01;62.04
71206;SHT31;58935;54.498;18.544;2023-06-26T10:55:34;23.07;62.64
71206;SHT31;58935;54.498;18.544;2023-06-26T10:58:01;23.17;62.91
71206;SHT31;58935;54.498;18.544;2023-06-26T11:00:27;23.27;63.54
71206;SHT31;58935;54.498;18.544;2023-06-26T11:02:53;23.38;63.00
71206;SHT31;58935;54.498;18.544;2023-06-26T11:10:23;23.62;60.89
71206;SHT31;58935;54.498;18.544;2023-06-26T11:12:50;23.63;60.55
71206;SHT31;58935;54.498;18.544;2023-06-26T11:15:19;23.69;61.83
71206;SHT31;58935;54.498;18.544;2023-06-26T11:17:45;23.79;62.28
71206;SHT31;58935;54.498;18.544;2023-06-26T11:20:14;23.89;62.52
71206;SHT31;58935;54.498;18.544;2023-06-26T11:22:43;23.96;62.22
71206;SHT31;58935;54.498;18.544;2023-06-26T11:25:09;24.00;62.17
71206;SHT31;58935;54.498;18.544;2023-06-26T11:27:40;24.08;61.74
71206;SHT31;58935;54.498;18.544;2023-06-26T11:30:07;24.16;60.42
71206;SHT31;58935;54.498;18.544;2023-06-26T11:32:47;24.20;59.91
71206;SHT31;58935;54.498;18.544;2023-06-26T11:35:13;24.23;58.81
71206;SHT31;58935;54.498;18.544;2023-06-26T11:37:38;24.28;59.19
71206;SHT31;58935;54.498;18.544;2023-06-26T11:42:37;24.44;58.00
71206;SHT31;58935;54.498;18.544;2023-06-26T11:45:03;24.49;56.51
71206;SHT31;58935;54.498;18.544;2023-06-26T11:47:29;24.52;55.39
71206;SHT31;58935;54.498;18.544;2023-06-26T11:49:55;24.60;54.48
71206;SHT31;58935;54.498;18.544;2023-06-26T11:52:22;24.69;54.15
71206;SHT31;58935;54.498;18.544;2023-06-26T11:54:47;24.74;54.12
71206;SHT31;58935;54.498;18.544;2023-06-26T11:57:14;24.82;54.44
71206;SHT31;58935;54.498;18.544;2023-06-26T11:59:44;24.88;53.41
71206;SHT31;58935;54.498;18.544;2023-06-26T12:02:10;24.91;53.57
71206;SHT31;58935;54.498;18.544;2023-06-26T12:04:41;24.94;51.40
71206;SHT31;58935;54.498;18.544;2023-06-26T12:07:11;24.92;50.77
71206;SHT31;58935;54.498;18.544;2023-06-26T12:09:38;24.85;49.52
71206;SHT31;58935;54.498;18.544;2023-06-26T12:12:09;24.82;50.00
71206;SHT31;58935;54.498;18.544;2023-06-26T12:14:36;24.84;48.64
71206;SHT31;58935;54.498;18.544;2023-06-26T12:17:07;24.82;49.04
71206;SHT31;58935;54.498;18.544;2023-06-26T12:19:37;24.92;50.70
71206;SHT31;58935;54.498;18.544;2023-06-26T12:22:13;25.06;52.00
71206;SHT31;58935;54.498;18.544;2023-06-26T12:24:39;25.15;51.96
71206;SHT31;58935;54.498;18.544;2023-06-26T12:27:08;25.28;50.88
71206;SHT31;58935;54.498;18.544;2023-06-26T12:29:36;25.41;50.17
71206;SHT31;58935;54.498;18.544;2023-06-26T12:32:03;25.52;50.56
71206;SHT31;58935;54.498;18.544;2023-06-26T12:34:33;25.60;51.91
71206;SHT31;58935;54.498;18.544;2023-06-26T12:37:02;25.56;50.98
71206;SHT31;58935;54.498;18.544;2023-06-26T12:39:38;25.53;50.58
71206;SHT31;58935;54.498;18.544;2023-06-26T12:42:18;25.47;50.31
71206;SHT31;58935;54.498;18.544;2023-06-26T12:44:47;25.44;50.75
71206;SHT31;58935;54.498;18.544;2023-06-26T12:47:14;25.36;51.49
71206;SHT31;58935;54.498;18.544;2023-06-26T12:49:44;25.29;54.00
71206;SHT31;58935;54.498;18.544;2023-06-26T12:52:17;25.26;53.47
71206;SHT31;58935;54.498;18.544;2023-06-26T12:54:45;25.21;51.74
71206;SHT31;58935;54.498;18.544;2023-06-26T12:57:13;25.21;54.07
71206;SHT31;58935;54.498;18.544;2023-06-26T12:59:39;25.20;53.00
71206;SHT31;58935;54.498;18.544;2023-06-26T13:02:05;25.13;51.22
71206;SHT31;58935;54.498;18.544;2023-06-26T13:04:32;25.08;52.22
71206;SHT31;58935;54.498;18.544;2023-06-26T13:06:58;25.08;50.56
71206;SHT31;58935;54.498;18.544;2023-06-26T13:09:23;25.11;50.25
71206;SHT31;58935;54.498;18.544;2023-06-26T13:11:52;25.15;49.83
71206;SHT31;58935;54.498;18.544;2023-06-26T13:14:19;25.24;48.34
71206;SHT31;58935;54.498;18.544;2023-06-26T13:16:44;25.28;50.14
71206;SHT31;58935;54.498;18.544;2023-06-26T13:19:10;25.22;50.24
71206;SHT31;58935;54.498;18.544;2023-06-26T13:21:38;25.15;49.99
71206;SHT31;58935;54.498;18.544;2023-06-26T13:24:03;25.16;51.26
71206;SHT31;58935;54.498;18.544;2023-06-26T13:26:30;25.18;51.68
71206;SHT31;58935;54.498;18.544;2023-06-26T13:28:56;25.15;48.73
71206;SHT31;58935;54.498;18.544;2023-06-26T13:31:22;25.11;49.22
71206;SHT31;58935;54.498;18.544;2023-06-26T13:33:48;25.13;48.86
71206;SHT31;58935;54.498;18.544;2023-06-26T13:36:15;25.17;47.82
71206;SHT31;58935;54.498;18.544;2023-06-26T13:38:44;25.24;47.94
71206;SHT31;58935;54.498;18.544;2023-06-26T13:41:10;25.26;44.47
71206;SHT31;58935;54.498;18.544;2023-06-26T13:43:38;25.20;42.98
71206;SHT31;58935;54.498;18.544;2023-06-26T13:46:03;25.15;42.45
71206;SHT31;58935;54.498;18.544;2023-06-26T13:48:29;25.17;43.29
71206;SHT31;58935;54.498;18.544;2023-06-26T13:50:54;25.20;43.16
71206;SHT31;58935;54.498;18.544;2023-06-26T13:53:21;25.17;44.61
71206;SHT31;58935;54.498;18.544;2023-06-26T13:55:47;25.17;45.13
71206;SHT31;58935;54.498;18.544;2023-06-26T13:58:13;25.17;45.80
71206;SHT31;58935;54.498;18.544;2023-06-26T14:00:39;25.21;46.04
71206;SHT31;58935;54.498;18.544;2023-06-26T14:03:06;25.19;45.19
71206;SHT31;58935;54.498;18.544;2023-06-26T14:05:33;25.17;45.23
71206;SHT31;58935;54.498;18.544;2023-06-26T14:07:59;25.16;45.23
71206;SHT31;58935;54.498;18.544;2023-06-26T14:10:31;25.14;45.39
71206;SHT31;58935;54.498;18.544;2023-06-26T14:12:58;25.13;45.37
71206;SHT31;58935;54.498;18.544;2023-06-26T14:15:25;25.13;44.81
71206;SHT31;58935;54.498;18.544;2023-06-26T14:17:50;25.14;44.54
71206;SHT31;58935;54.498;18.544;2023-06-26T14:20:16;25.16;45.88
71206;SHT31;58935;54.498;18.544;2023-06-26T14:22:43;25.22;46.95
71206;SHT31;58935;54.498;18.544;2023-06-26T14:25:13;25.30;47.82
71206;SHT31;58935;54.498;18.544;2023-06-26T14:27:39;25.47;47.43
71206;SHT31;58935;54.498;18.544;2023-06-26T14:30:07;25.61;48.10
71206;SHT31;58935;54.498;18.544;2023-06-26T14:32:34;25.74;47.01
71206;SHT31;58935;54.498;18.544;2023-06-26T14:35:02;25.84;46.42
71206;SHT31;58935;54.498;18.544;2023-06-26T14:37:29;25.89;46.29
71206;SHT31;58935;54.498;18.544;2023-06-26T14:39:55;25.96;45.61
71206;SHT31;58935;54.498;18.544;2023-06-26T14:42:22;25.97;45.90
71206;SHT31;58935;54.498;18.544;2023-06-26T14:44:47;25.97;47.00
71206;SHT31;58935;54.498;18.544;2023-06-26T14:47:15;25.96;47.52
71206;SHT31;58935;54.498;18.544;2023-06-26T14:49:43;25.96;47.75
71206;SHT31;58935;54.498;18.544;2023-06-26T14:52:11;25.90;47.38
71206;SHT31;58935;54.498;18.544;2023-06-26T14:54:36;25.87;47.12
71206;SHT31;58935;54.498;18.544;2023-06-26T14:57:03;25.85;45.24
71206;SHT31;58935;54.498;18.544;2023-06-26T14:59:29;25.88;45.85
71206;SHT31;58935;54.498;18.544;2023-06-26T15:01:55;25.87;45.63
71206;SHT31;58935;54.498;18.544;2023-06-26T15:04:20;25.89;46.15
71206;SHT31;58935;54.498;18.544;2023-06-26T15:06:48;25.93;46.19
71206;SHT31;58935;54.498;18.544;2023-06-26T15:09:13;25.87;46.62
71206;SHT31;58935;54.498;18.544;2023-06-26T15:11:39;25.85;47.63
71206;SHT31;58935;54.498;18.544;2023-06-26T15:14:04;25.85;47.52
71206;SHT31;58935;54.498;18.544;2023-06-26T15:16:30;25.93;48.20
71206;SHT31;58935;54.498;18.544;2023-06-26T15:18:55;26.01;48.67
71206;SHT31;58935;54.498;18.544;2023-06-26T15:21:21;26.10;49.18
71206;SHT31;58935;54.498;18.544;2023-06-26T15:23:46;26.10;48.59
71206;SHT31;58935;54.498;18.544;2023-06-26T15:26:12;26.09;48.05
71206;SHT31;58935;54.498;18.544;2023-06-26T15:28:38;26.11;48.59
71206;SHT31;58935;54.498;18.544;2023-06-26T15:31:04;26.19;49.62
71206;SHT31;58935;54.498;18.544;2023-06-26T15:33:32;26.34;49.72
71206;SHT31;58935;54.498;18.544;2023-06-26T15:36:00;26.48;48.32
71206;SHT31;58935;54.498;18.544;2023-06-26T15:38:28;26.55;47.61
71206;SHT31;58935;54.498;18.544;2023-06-26T15:40:54;26.58;47.84
71206;SHT31;58935;54.498;18.544;2023-06-26T15:43:19;26.65;47.20
71206;SHT31;58935;54.498;18.544;2023-06-26T15:45:45;26.73;46.75